Time;durP1;ratioP1;P1;durP2;ratioP2;P2;SDS_P1;SDS_P2;PMS_P1;PMS_P2;Temp;Humidity;BMP_temperature;BMP_pressure;BME280_temperature;BME280_humidity;BME280_pressure;Samples;Min_cycle;Max_cycle;Signal;HPM_P1;HPM_P2
2023/02/06 00:01:29;;;;;;;12.00;4.90;;;;;;;-11.47;76.13;97057.56;106658;1274;25544;-63
2023/02/06 00:03:57;;;;;;;15.30;7.20;;;;;;;-11.57;76.05;97053.55;106594;1274;24215;-63
2023/02/06 00:06:25;;;;;;;45.30;19.30;;;;;;;-11.69;75.67;97052.61;106625;1274;24688;-63
2023/02/06 00:08:54;;;;;;;22.10;11.90;;;;;;;-11.83;75.84;97055.44;106616;1275;22805;-63
2023/02/06 00:11:22;;;;;;;14.60;7.10;;;;;;;-11.84;76.39;97054.36;106620;1275;26901;-63
2023/02/06 00:13:51;;;;;;;11.60;4.40;;;;;;;-11.84;76.57;97058.05;106652;1275;22682;-63
2023/02/06 00:16:19;;;;;;;11.90;5.60;;;;;;;-11.75;77.14;97055.33;106760;1275;24199;-63
2023/02/06 00:18:48;;;;;;;13.20;6.40;;;;;;;-11.67;76.79;97056.36;106614;1275;22566;-63
2023/02/06 00:21:19;;;;;;;9.70;5.30;;;;;;;-11.70;76.68;97054.21;106660;1274;22850;-63
2023/02/06 00:23:48;;;;;;;7.80;4.40;;;;;;;-11.72;76.70;97058.64;106693;1274;25626;-63
2023/02/06 00:26:16;;;;;;;8.60;4.20;;;;;;;-11.78;76.54;97054.67;106606;1275;22714;-63
2023/02/06 00:28:46;;;;;;;8.20;3.90;;;;;;;-11.80;76.68;97051.67;106667;1274;25689;-63
2023/02/06 00:31:14;;;;;;;8.80;4.30;;;;;;;-11.84;76.93;97052.76;106691;1275;24242;-63
2023/02/06 00:33:43;;;;;;;16.70;8.30;;;;;;;-11.88;76.75;97052.14;106652;1274;22593;-63
2023/02/06 00:36:11;;;;;;;24.80;11.30;;;;;;;-11.77;77.20;97057.98;106622;1275;22654;-63
2023/02/06 00:38:39;;;;;;;23.80;12.70;;;;;;;-11.64;77.23;97060.31;106685;1274;25634;-63
2023/02/06 00:41:07;;;;;;;22.20;10.90;;;;;;;-11.59;76.54;97063.55;106641;1275;24200;-63
2023/02/06 00:43:36;;;;;;;42.80;18.70;;;;;;;-11.64;75.86;97069.85;106604;1275;22550;-63
2023/02/06 00:46:04;;;;;;;37.20;16.10;;;;;;;-11.65;75.88;97069.05;106598;1275;22608;-63
2023/02/06 00:48:33;;;;;;;30.00;14.10;;;;;;;-11.74;75.22;97070.45;106653;1275;22724;-63
2023/02/06 00:51:01;;;;;;;32.50;14.80;;;;;;;-11.96;74.59;97078.67;106639;1275;22735;-63
2023/02/06 00:53:29;;;;;;;31.00;15.80;;;;;;;-12.21;73.94;97085.27;106574;1275;24430;-63
2023/02/06 00:55:58;;;;;;;28.10;14.20;;;;;;;-12.42;74.34;97092.16;106652;1275;22586;-63
2023/02/06 00:58:26;;;;;;;29.40;13.80;;;;;;;-12.41;76.13;97094.27;106590;1264;27006;-63
2023/02/06 01:00:54;;;;;;;25.20;12.30;;;;;;;-12.47;75.72;97094.89;106632;1275;22642;-63
2023/02/06 01:03:24;;;;;;;26.90;11.90;;;;;;;-12.55;76.18;97091.01;106736;1275;22585;-63
2023/02/06 01:05:53;;;;;;;10.80;5.50;;;;;;;-12.48;76.60;97097.21;106607;1275;22730;-63
2023/02/06 01:08:22;;;;;;;13.20;5.90;;;;;;;-12.48;76.16;97097.23;106632;1275;25436;-63
2023/02/06 01:10:51;;;;;;;11.30;5.90;;;;;;;-12.46;76.04;97101.27;106673;1274;22878;-63
2023/02/06 01:13:20;;;;;;;10.90;5.50;;;;;;;-12.45;76.45;97097.14;106369;1275;22637;-63
2023/02/06 01:15:48;;;;;;;11.90;5.60;;;;;;;-12.39;76.59;97094.11;106583;1274;22540;-63
2023/02/06 01:18:18;;;;;;;16.70;7.20;;;;;;;-12.32;76.48;97092.75;106631;1274;22688;-63
2023/02/06 01:20:46;;;;;;;11.40;5.90;;;;;;;-12.35;76.78;97101.42;106570;1274;22721;-63
2023/02/06 01:23:14;;;;;;;15.00;7.10;;;;;;;-12.40;76.32;97103.36;106609;1274;22623;-63
2023/02/06 01:25:44;;;;;;;14.80;7.90;;;;;;;-12.44;76.17;97105.41;106666;1274;25471;-63
2023/02/06 01:28:12;;;;;;;16.20;7.00;;;;;;;-12.43;76.45;97109.76;106617;1274;22641;-63
2023/02/06 01:30:40;;;;;;;15.60;8.40;;;;;;;-12.28;77.20;97111.46;106593;1274;25618;-63
2023/02/06 01:33:08;;;;;;;19.80;8.50;;;;;;;-12.23;76.67;97107.33;106659;1275;22608;-63
2023/02/06 01:35:37;;;;;;;16.20;8.10;;;;;;;-12.28;75.62;97113.11;106608;1272;22720;-63
2023/02/06 01:38:07;;;;;;;16.10;7.70;;;;;;;-12.38;75.66;97115.89;106619;1274;25451;-63
2023/02/06 01:40:35;;;;;;;15.50;6.90;;;;;;;-12.46;75.97;97116.88;106594;1275;22837;-63
2023/02/06 01:43:10;;;;;;;15.00;6.70;;;;;;;-12.47;76.51;97110.20;106601;1274;22857;-63
2023/02/06 01:45:43;;;;;;;15.20;6.90;;;;;;;-12.34;77.08;97110.38;106660;1274;22537;-63
2023/02/06 01:48:24;;;;;;;17.10;7.60;;;;;;;-12.27;76.62;97111.34;106590;1275;22648;-63
2023/02/06 01:50:55;;;;;;;13.80;6.90;;;;;;;-12.27;76.11;97114.45;106636;1274;22692;-63
2023/02/06 01:53:24;;;;;;;13.60;6.50;;;;;;;-12.38;75.60;97119.68;106627;1274;22626;-63
2023/02/06 01:55:53;;;;;;;19.20;8.50;;;;;;;-12.40;76.10;97123.17;106689;1274;24325;-63
2023/02/06 01:58:44;;;;;;;20.80;10.10;;;;;;;-12.32;76.67;97120.59;106645;1274;24183;-63
2023/02/06 02:01:13;;;;;;;15.60;7.70;;;;;;;-12.26;75.74;97118.75;106662;1274;25480;-63
2023/02/06 02:03:43;;;;;;;14.70;7.10;;;;;;;-12.35;75.60;97113.96;106713;1274;22581;-63
2023/02/06 02:06:15;;;;;;;24.70;10.60;;;;;;;-12.42;75.65;97118.48;106609;1275;22730;-63
2023/02/06 02:08:45;;;;;;;19.70;9.40;;;;;;;-12.50;75.38;97116.73;106585;1274;22559;-63
2023/02/06 02:11:19;;;;;;;19.40;10.00;;;;;;;-12.65;75.07;97117.50;106652;1261;22871;-63
2023/02/06 02:13:49;;;;;;;15.50;7.40;;;;;;;-12.68;75.73;97111.68;106552;1274;23683;-63
2023/02/06 02:16:43;;;;;;;14.50;6.60;;;;;;;-12.55;76.42;97114.34;106647;1275;22700;-62
2023/02/06 02:19:20;;;;;;;15.60;6.60;;;;;;;-12.46;76.11;97117.45;106769;1253;22828;-64
2023/02/06 02:21:57;;;;;;;13.70;7.50;;;;;;;-12.42;75.86;97113.89;106649;1274;24220;-64
2023/02/06 02:24:50;;;;;;;17.20;7.70;;;;;;;-12.39;75.43;97115.38;106590;1274;23533;-64
2023/02/06 02:27:31;;;;;;;20.80;9.50;;;;;;;-12.50;75.43;97121.29;106586;1274;22523;-64
2023/02/06 02:30:23;;;;;;;16.10;8.10;;;;;;;-12.66;74.68;97126.11;106539;1274;24317;-64
2023/02/06 02:33:18;;;;;;;20.00;8.80;;;;;;;-12.78;75.66;97119.32;106593;1274;22807;-64
2023/02/06 02:35:57;;;;;;;24.30;11.00;;;;;;;-12.80;75.07;97125.21;106681;1274;22567;-64
2023/02/06 02:38:45;;;;;;;29.50;12.90;;;;;;;-12.86;74.98;97125.83;106609;1268;23027;-64
2023/02/06 02:41:25;;;;;;;26.70;12.90;;;;;;;-12.72;75.65;97127.08;106504;1275;24486;-64
2023/02/06 02:44:04;;;;;;;26.60;11.40;;;;;;;-12.71;75.11;97132.69;106607;1253;23047;-64
2023/02/06 02:46:56;;;;;;;16.80;9.10;;;;;;;-12.84;74.02;97134.39;106578;1275;23991;-64
2023/02/06 02:49:28;;;;;;;14.30;6.80;;;;;;;-12.90;75.03;97131.27;106605;1275;24267;-64
2023/02/06 02:51:59;;;;;;;25.40;12.80;;;;;;;-12.91;75.36;97133.36;106654;1275;22803;-64
2023/02/06 02:54:27;;;;;;;15.90;8.20;;;;;;;-13.03;74.21;97136.69;106604;1275;25594;-64
2023/02/06 02:57:04;;;;;;;16.80;7.00;;;;;;;-13.06;75.28;97138.09;106615;1275;22554;-64
2023/02/06 02:59:40;;;;;;;15.70;7.30;;;;;;;-13.02;75.82;97140.59;106635;1274;24292;-64
2023/02/06 03:02:23;;;;;;;17.50;8.80;;;;;;;-12.97;76.23;97141.15;106598;1274;24104;-64
2023/02/06 03:05:03;;;;;;;;;;;;;;;-12.91;75.85;97142.05;106689;1275;23177;-64
2023/02/06 03:07:57;;;;;;;15.30;8.00;;;;;;;-12.93;75.51;97139.28;106633;1275;23153;-64
2023/02/06 03:10:37;;;;;;;22.00;9.50;;;;;;;-12.93;76.02;97140.65;106592;1274;24073;-64
2023/02/06 03:13:30;;;;;;;15.70;6.80;;;;;;;-13.03;75.18;97136.26;106626;1275;24381;-64
2023/02/06 03:16:22;;;;;;;17.90;8.60;;;;;;;-13.01;76.12;97137.50;106601;1275;22635;-63
2023/02/06 03:19:00;;;;;;;16.00;8.80;;;;;;;-13.02;75.57;97139.73;106641;1254;24202;-64
2023/02/06 03:21:30;;;;;;;18.80;9.40;;;;;;;-13.03;75.45;97141.05;106486;1274;25481;-64
2023/02/06 03:24:02;;;;;;;20.30;9.50;;;;;;;-13.10;75.59;97139.16;106656;1275;22717;-64
2023/02/06 03:26:31;;;;;;;19.50;9.90;;;;;;;-13.01;76.15;97142.38;106614;1275;22620;-64
2023/02/06 03:29:04;;;;;;;23.70;11.40;;;;;;;-12.94;75.53;97139.37;106650;1274;24232;-64
2023/02/06 03:31:34;;;;;;;27.60;12.30;;;;;;;-12.90;75.26;97142.82;106565;1274;22690;-64
2023/02/06 03:34:32;;;;;;;37.80;13.00;;;;;;;-12.92;74.23;97143.10;106657;1275;25686;-63
2023/02/06 03:37:01;;;;;;;38.50;13.10;;;;;;;-13.16;74.36;97148.38;106631;1274;22620;-64
2023/02/06 03:39:29;;;;;;;33.10;14.40;;;;;;;-13.19;74.64;97148.95;106627;1275;22794;-64
2023/02/06 03:42:00;;;;;;;37.40;15.20;;;;;;;-13.17;74.61;97145.80;106598;1274;25631;-64
2023/02/06 03:44:33;;;;;;;37.60;14.30;;;;;;;-13.23;74.21;97144.55;106671;1274;22631;-64
2023/02/06 03:47:02;;;;;;;;;;;;;;;-13.27;74.55;97146.73;106652;1275;22505;-63
2023/02/06 03:49:33;;;;;;;51.30;19.60;;;;;;;-13.22;75.28;97146.80;106605;1275;22740;-64
2023/02/06 03:52:16;;;;;;;71.20;23.90;;;;;;;-13.31;74.12;97139.54;106686;1274;25579;-64
2023/02/06 03:54:52;;;;;;;54.80;18.70;;;;;;;-13.44;74.72;97142.71;106614;1276;24299;-63
2023/02/06 03:57:22;;;;;;;46.00;16.10;;;;;;;-13.53;74.34;97146.25;106605;1276;24379;-63
2023/02/06 03:59:51;;;;;;;55.20;18.90;;;;;;;-13.62;74.93;97143.35;106558;1276;25518;-64
2023/02/06 04:02:21;;;;;;;49.40;19.00;;;;;;;-13.62;75.24;97142.00;106721;1276;22633;-63
2023/02/06 04:04:49;;;;;;;36.50;13.40;;;;;;;-13.53;75.58;97140.84;106785;1276;24125;-63
2023/02/06 04:07:23;;;;;;;65.00;23.00;;;;;;;-13.51;75.51;97134.79;106563;1276;24338;-64
2023/02/06 04:09:51;;;;;;;68.50;23.80;;;;;;;-13.45;75.43;97148.06;106571;1276;22543;-63
2023/02/06 04:12:22;;;;;;;76.60;28.60;;;;;;;-13.53;74.31;97151.15;106559;1276;22740;-63
2023/02/06 04:14:51;;;;;;;62.90;23.00;;;;;;;-13.62;74.28;97153.98;106607;1276;24177;-64
2023/02/06 04:17:19;;;;;;;67.90;20.60;;;;;;;-13.62;74.80;97150.60;106585;1275;24249;-64
2023/02/06 04:20:08;;;;;;;41.90;14.70;;;;;;;-13.60;75.08;97149.09;106571;1276;24713;-63
2023/02/06 04:22:38;;;;;;;31.40;12.20;;;;;;;-13.56;75.81;97145.96;106614;1276;24430;-64
2023/02/06 04:25:06;;;;;;;34.00;12.70;;;;;;;-13.56;75.14;97149.33;106634;1276;25617;-63
2023/02/06 04:27:36;;;;;;;51.10;16.30;;;;;;;-13.59;75.48;97145.31;106534;1276;24425;-63
2023/02/06 04:30:05;;;;;;;28.60;12.10;;;;;;;-13.68;74.83;97149.23;106572;1276;24359;-63
2023/02/06 04:32:33;;;;;;;31.00;10.30;;;;;;;-13.73;74.98;97150.55;106621;1276;25505;-63
2023/02/06 04:35:01;;;;;;;21.30;8.80;;;;;;;-13.74;75.20;97150.34;106558;1276;26834;-63
2023/02/06 04:37:29;;;;;;;17.40;8.10;;;;;;;-13.74;75.20;97157.73;106543;1276;22635;-63
2023/02/06 04:39:57;;;;;;;46.80;19.20;;;;;;;-13.84;75.80;97153.21;106571;1275;24410;-63
2023/02/06 04:42:26;;;;;;;65.50;27.70;;;;;;;-13.95;75.80;97153.45;106572;1276;22628;-63
2023/02/06 04:44:54;;;;;;;60.90;29.00;;;;;;;-14.02;75.74;97155.49;106758;1276;27538;-63
2023/02/06 04:47:22;;;;;;;52.10;21.20;;;;;;;-13.99;75.86;97163.13;106599;1276;22631;-63
2023/02/06 04:49:50;;;;;;;10.60;5.40;;;;;;;-13.91;76.41;97157.36;106564;1275;22937;-63
2023/02/06 04:52:19;;;;;;;10.70;5.60;;;;;;;-13.86;76.23;97163.05;106616;1275;22596;-63
2023/02/06 04:54:47;;;;;;;12.20;5.30;;;;;;;-13.71;76.53;97159.74;106592;1265;26779;-63
2023/02/06 04:57:16;;;;;;;10.40;5.70;;;;;;;-13.70;75.92;97153.24;106590;1254;24310;-64
2023/02/06 04:59:44;;;;;;;11.60;5.40;;;;;;;-13.57;76.36;97151.92;106546;1274;24295;-63
2023/02/06 05:02:12;;;;;;;14.90;7.10;;;;;;;-13.51;76.03;97152.75;106571;1275;22695;-63
2023/02/06 05:04:40;;;;;;;48.90;20.80;;;;;;;-13.45;75.88;97149.20;106586;1275;22808;-63
2023/02/06 05:07:08;;;;;;;49.90;21.10;;;;;;;-13.53;74.27;97147.41;106108;1274;675951;-64
2023/02/06 05:09:36;;;;;;;33.90;13.40;;;;;;;-13.56;74.25;97151.85;106582;1275;24231;-63
2023/02/06 05:12:05;;;;;;;54.20;20.30;;;;;;;-13.45;74.75;97153.27;106607;1275;24231;-63
2023/02/06 05:14:33;;;;;;;56.40;22.80;;;;;;;-13.41;74.33;97153.17;106607;1275;24228;-63
2023/02/06 05:17:01;;;;;;;64.10;24.90;;;;;;;-13.36;74.35;97149.96;106584;1275;24248;-63
2023/02/06 05:19:29;;;;;;;24.40;11.10;;;;;;;-13.38;74.18;97141.79;106608;1275;22555;-63
2023/02/06 05:21:57;;;;;;;35.90;14.90;;;;;;;-13.41;74.56;97145.23;106576;1275;25610;-63
2023/02/06 05:24:25;;;;;;;60.70;26.50;;;;;;;-13.50;74.05;97149.11;106628;1275;22745;-64
2023/02/06 05:26:56;;;;;;;54.70;23.50;;;;;;;-13.52;74.26;97150.58;106587;1265;24237;-63
2023/02/06 05:29:25;;;;;;;86.50;35.90;;;;;;;-13.61;74.07;97143.81;106581;1253;25489;-64
2023/02/06 05:31:53;;;;;;;117.50;46.30;;;;;;;-13.63;74.69;97138.67;106584;1265;23127;-63
2023/02/06 05:34:21;;;;;;;102.10;40.10;;;;;;;-13.58;75.08;97139.83;106628;1275;22664;-63
2023/02/06 05:36:49;;;;;;;122.60;47.30;;;;;;;-13.50;74.96;97141.14;106610;1275;24253;-63
2023/02/06 05:39:17;;;;;;;81.90;34.30;;;;;;;-13.42;74.36;97130.09;106627;1275;22666;-63
2023/02/06 05:41:46;;;;;;;69.20;28.60;;;;;;;-13.38;73.91;97135.23;106744;1275;22847;-63
2023/02/06 05:44:14;;;;;;;55.70;23.10;;;;;;;-13.33;73.50;97141.07;106660;1275;23139;-63
2023/02/06 05:46:43;;;;;;;74.90;29.50;;;;;;;-13.40;72.52;97143.91;106564;1275;25721;-63
2023/02/06 05:49:11;;;;;;;47.20;19.70;;;;;;;-13.45;73.01;97147.23;106632;1275;24435;-63
2023/02/06 05:51:39;;;;;;;32.20;13.90;;;;;;;-13.41;73.63;97153.14;106587;1275;25660;-64
2023/02/06 05:54:07;;;;;;;11.50;5.50;;;;;;;-13.35;73.96;97153.05;106666;1275;22599;-63
2023/02/06 05:56:35;;;;;;;43.80;20.50;;;;;;;-13.43;73.21;97162.40;106617;1274;22684;-64
2023/02/06 05:59:03;;;;;;;51.50;22.80;;;;;;;-13.57;72.44;97162.61;106602;1274;25583;-63
2023/02/06 06:01:31;;;;;;;54.20;23.10;;;;;;;-13.72;72.05;97169.48;106577;1274;22723;-64
2023/02/06 06:04:00;;;;;;;55.00;25.30;;;;;;;-13.80;72.67;97171.67;106463;1251;24422;-65
2023/02/06 06:06:28;;;;;;;65.20;30.50;;;;;;;-13.89;72.74;97172.53;106530;1275;24276;-63
2023/02/06 06:08:56;;;;;;;50.80;22.70;;;;;;;-13.99;73.39;97171.17;106632;1273;22640;-64
2023/02/06 06:11:24;;;;;;;17.70;8.80;;;;;;;-13.95;74.02;97166.52;106589;1275;24226;-65
2023/02/06 06:13:52;;;;;;;11.50;5.60;;;;;;;-13.80;74.81;97164.81;106486;1275;22837;-64
2023/02/06 06:16:21;;;;;;;12.20;6.30;;;;;;;-13.70;74.63;97161.36;106481;1275;24203;-66
2023/02/06 06:18:49;;;;;;;14.40;6.80;;;;;;;-13.63;74.90;97161.18;106729;1275;22537;-66
2023/02/06 06:21:17;;;;;;;41.50;20.70;;;;;;;-13.44;75.44;97164.62;106907;1275;24003;-66
2023/02/06 06:23:45;;;;;;;52.00;25.00;;;;;;;-13.25;75.13;97170.28;106707;1275;24335;-64
2023/02/06 06:26:14;;;;;;;47.90;22.90;;;;;;;-13.11;74.53;97174.38;106772;1257;22941;-65
2023/02/06 06:28:42;;;;;;;52.10;24.10;;;;;;;-13.03;73.88;97176.45;110358;1275;22778;-66
2023/02/06 06:31:11;;;;;;;53.30;25.10;;;;;;;-12.95;73.39;97183.64;106585;1275;25682;-66
2023/02/06 06:33:40;;;;;;;54.50;25.90;;;;;;;-12.95;72.52;97183.08;106614;1275;22750;-65
2023/02/06 06:36:10;;;;;;;58.00;25.30;;;;;;;-13.09;72.26;97186.52;106481;1275;22686;-64
2023/02/06 06:38:41;;;;;;;33.20;16.40;;;;;;;-13.22;71.66;97194.98;106664;1275;25258;-62
2023/02/06 06:41:09;;;;;;;177.80;62.60;;;;;;;-13.44;71.68;97193.13;106488;1275;23214;-63
2023/02/06 06:43:38;;;;;;;71.40;30.10;;;;;;;-13.54;72.73;97191.15;106415;1275;22568;-64
2023/02/06 06:46:07;;;;;;;40.20;16.20;;;;;;;-13.44;73.38;97187.43;106598;1275;22769;-64
2023/02/06 06:48:37;;;;;;;37.60;18.00;;;;;;;-13.32;73.81;97184.30;106481;1275;25497;-64
2023/02/06 06:51:05;;;;;;;71.90;33.20;;;;;;;-13.19;74.42;97174.83;106620;1275;22871;-63
2023/02/06 06:53:38;;;;;;;113.30;49.30;;;;;;;-13.04;75.99;97174.70;106604;1275;22690;-63
2023/02/06 06:56:11;;;;;;;36.30;15.80;;;;;;;-12.78;76.06;97171.32;106765;1275;22651;-64
2023/02/06 06:58:40;;;;;;;108.10;44.40;;;;;;;-12.62;75.63;97176.11;106589;1275;24094;-70
2023/02/06 07:01:08;;;;;;;91.20;40.90;;;;;;;-12.36;75.80;97175.80;106534;1275;27018;-66
2023/02/06 07:03:37;;;;;;;200.70;75.50;;;;;;;-12.10;75.44;97173.50;106615;1274;22618;-65
2023/02/06 07:06:05;;;;;;;72.00;30.80;;;;;;;-11.88;74.73;97176.02;106564;1276;22540;-63
2023/02/06 07:08:34;;;;;;;63.10;29.70;;;;;;;-11.67;74.31;97177.01;106477;1271;25423;-64
2023/02/06 07:11:03;;;;;;;45.60;22.20;;;;;;;-11.53;73.73;97174.18;106481;1271;26882;-64
2023/02/06 07:13:31;;;;;;;49.60;21.60;;;;;;;-11.37;74.02;97173.64;106349;1275;25628;-63
2023/02/06 07:15:59;;;;;;;43.90;22.30;;;;;;;-11.13;74.30;97173.55;106461;1275;22682;-63
2023/02/06 07:18:27;;;;;;;38.00;17.80;;;;;;;-10.83;74.06;97176.52;106431;1275;24220;-66
2023/02/06 07:20:55;;;;;;;38.60;18.90;;;;;;;-10.71;73.10;97178.05;106494;1275;25461;-63
2023/02/06 07:23:23;;;;;;;344.50;96.00;;;;;;;-10.65;72.67;97173.52;106413;1275;22596;-62
2023/02/06 07:25:52;;;;;;;53.60;22.90;;;;;;;-10.54;73.00;97169.59;106558;1275;22614;-68
2023/02/06 07:28:21;;;;;;;45.80;20.00;;;;;;;-10.33;72.86;97169.50;106416;1275;24834;-67
2023/02/06 07:30:49;;;;;;;50.00;19.90;;;;;;;-10.08;72.48;97163.55;106471;1275;26321;-63
2023/02/06 07:33:17;;;;;;;60.40;27.90;;;;;;;-9.88;71.79;97154.39;106413;1275;25651;-64
2023/02/06 07:35:45;;;;;;;41.30;18.40;;;;;;;-9.70;70.69;97154.00;106392;1275;23157;-66
2023/02/06 07:38:13;;;;;;;35.10;15.70;;;;;;;-9.43;71.31;97150.61;106616;1253;24253;-65
2023/02/06 07:40:42;;;;;;;39.40;16.50;;;;;;;-9.11;70.25;97152.85;106607;1275;22605;-67
2023/02/06 07:43:13;;;;;;;38.90;17.20;;;;;;;-8.88;68.40;97159.14;106549;1275;22642;-66
2023/02/06 07:45:41;;;;;;;35.10;14.90;;;;;;;-8.85;67.27;97159.84;106569;1275;22751;-64
2023/02/06 07:48:10;;;;;;;29.20;14.30;;;;;;;-8.74;66.81;97158.95;106629;1271;24350;-68
2023/02/06 07:50:38;;;;;;;34.90;16.10;;;;;;;-8.62;67.54;97158.84;106533;1254;22964;-69
2023/02/06 07:53:06;;;;;;;36.80;17.20;;;;;;;-8.39;68.60;97163.17;106452;1275;24205;-66
2023/02/06 07:55:37;;;;;;;35.70;18.40;;;;;;;-8.12;68.56;97154.87;106511;1272;22795;-63
2023/02/06 07:58:05;;;;;;;33.30;16.40;;;;;;;-7.94;68.54;97155.59;106581;1275;22606;-67
2023/02/06 08:00:34;;;;;;;34.50;17.30;;;;;;;-7.66;69.26;97151.69;108310;1275;24072;-66
2023/02/06 08:03:03;;;;;;;36.30;17.50;;;;;;;-7.43;67.01;97152.75;106628;1275;24447;-64
2023/02/06 08:05:32;;;;;;;47.00;20.40;;;;;;;-7.39;66.56;97154.94;106579;1275;23753;-65
2023/02/06 08:08:01;;;;;;;60.10;28.70;;;;;;;-7.33;66.46;97155.38;107045;1263;26009;-67
2023/02/06 08:10:29;;;;;;;59.90;26.60;;;;;;;-7.28;66.59;97152.48;107340;1275;22696;-62
2023/02/06 08:12:57;;;;;;;51.60;24.00;;;;;;;-7.25;66.81;97156.30;106387;1275;24493;-62
2023/02/06 08:15:25;;;;;;;45.20;22.50;;;;;;;-7.14;67.09;97159.52;106442;1275;24253;-60
2023/02/06 08:17:53;;;;;;;48.80;23.40;;;;;;;-7.00;66.52;97158.02;106427;1275;25570;-61
2023/02/06 08:20:22;;;;;;;57.40;29.70;;;;;;;-6.86;66.36;97162.09;106362;1271;22519;-61
2023/02/06 08:22:50;;;;;;;56.20;30.50;;;;;;;-6.70;66.40;97163.44;106406;1269;22558;-65
2023/02/06 08:25:18;;;;;;;134.80;62.50;;;;;;;-6.41;66.63;97160.05;106340;1269;24235;-62
2023/02/06 08:27:46;;;;;;;49.60;26.40;;;;;;;-6.24;65.57;97157.45;106417;1272;22545;-60
2023/02/06 08:30:14;;;;;;;115.80;53.20;;;;;;;-6.27;65.19;97160.84;106314;1273;22535;-64
2023/02/06 08:32:42;;;;;;;64.60;34.80;;;;;;;-6.05;66.04;97154.67;106277;1269;22528;-64
2023/02/06 08:35:11;;;;;;;54.70;27.90;;;;;;;-6.01;65.63;97152.55;106541;1271;24242;-63
2023/02/06 08:37:39;;;;;;;43.60;24.10;;;;;;;-5.87;66.07;97150.46;107227;1276;24229;-63
2023/02/06 08:40:08;;;;;;;39.70;21.20;;;;;;;-5.76;66.18;97153.05;106721;1276;22803;-64
2023/02/06 08:42:36;;;;;;;56.50;29.90;;;;;;;-5.65;66.85;97157.39;106626;1276;22577;-63
2023/02/06 08:45:05;;;;;;;39.30;19.50;;;;;;;-5.24;66.83;97153.19;106508;1265;22557;-63
2023/02/06 08:47:33;;;;;;;29.90;16.60;;;;;;;-4.92;66.30;97148.91;108252;1265;22709;-64
2023/02/06 08:50:01;;;;;;;28.70;14.70;;;;;;;-4.63;65.58;97151.77;106525;1272;24249;-67
2023/02/06 08:52:30;;;;;;;16.60;10.20;;;;;;;-4.50;64.82;97147.19;106615;1275;25438;-68
2023/02/06 08:54:59;;;;;;;24.90;14.90;;;;;;;-4.34;64.82;97143.73;106468;1275;22538;-68
2023/02/06 08:57:27;;;;;;;22.20;12.40;;;;;;;-4.23;64.21;97145.46;107188;1275;22572;-66
2023/02/06 08:59:55;;;;;;;21.00;11.00;;;;;;;-4.11;64.10;97146.86;106524;1275;25380;-66
2023/02/06 09:02:23;;;;;;;16.50;9.30;;;;;;;-3.95;63.94;97144.42;106561;1275;22524;-63
2023/02/06 09:04:52;;;;;;;20.90;12.90;;;;;;;-3.88;63.67;97141.42;106564;1275;22516;-66
2023/02/06 09:07:21;;;;;;;23.20;12.40;;;;;;;-3.85;63.59;97141.79;106561;1275;22681;-64
2023/02/06 09:09:49;;;;;;;24.50;13.40;;;;;;;-3.78;63.38;97141.20;106590;1265;24266;-66
2023/02/06 09:12:17;;;;;;;18.80;9.50;;;;;;;-3.78;63.15;97139.79;106694;1269;22553;-64
2023/02/06 09:14:45;;;;;;;16.40;9.00;;;;;;;-3.64;63.46;97140.65;106535;1270;22646;-64
2023/02/06 09:17:13;;;;;;;19.40;9.20;;;;;;;-3.51;63.03;97146.42;106444;1275;22845;-64
2023/02/06 09:19:42;;;;;;;17.90;9.30;;;;;;;-3.45;62.59;97143.70;106371;1273;23899;-64
2023/02/06 09:22:10;;;;;;;19.40;10.30;;;;;;;-3.35;62.69;97136.39;106454;1273;24037;-65
2023/02/06 09:24:39;;;;;;;14.30;8.00;;;;;;;-3.19;62.40;97138.16;106627;1271;22648;-64
2023/02/06 09:27:07;;;;;;;16.80;9.10;;;;;;;-3.14;61.82;97135.88;106414;1269;23883;-63
2023/02/06 09:29:35;;;;;;;16.60;8.70;;;;;;;-3.03;61.90;97127.06;106401;1271;22776;-65
2023/02/06 09:32:04;;;;;;;14.00;8.00;;;;;;;-2.87;61.63;97131.95;106474;1273;24369;-66
2023/02/06 09:34:32;;;;;;;18.20;10.60;;;;;;;-2.70;60.96;97126.02;106795;1270;22531;-66
2023/02/06 09:37:02;;;;;;;15.50;8.70;;;;;;;-2.55;60.70;97123.39;106596;1272;25241;-66
2023/02/06 09:39:31;;;;;;;16.50;9.10;;;;;;;-2.39;60.24;97120.19;106313;1269;25180;-64
2023/02/06 09:42:15;;;;;;;44.10;24.50;;;;;;;-2.17;60.35;97114.34;106369;1271;22652;-76
2023/02/06 09:44:52;;;;;;;12.80;7.00;;;;;;;-2.11;58.77;97107.58;106801;1269;25207;-65
2023/02/06 09:47:39;;;;;;;10.40;5.10;;;;;;;-2.15;58.64;97103.55;106479;1270;25306;-65
2023/02/06 09:50:35;;;;;;;9.60;6.20;;;;;;;-2.04;58.26;97108.85;106516;1269;24234;-63
2023/02/06 09:53:06;;;;;;;10.40;6.50;;;;;;;-1.95;58.30;97102.59;106519;1268;24497;-67
2023/02/06 09:55:45;;;;;;;12.80;6.80;;;;;;;-1.80;57.72;97097.53;106431;1272;24416;-67
2023/02/06 09:58:25;;;;;;;12.10;8.30;;;;;;;-1.72;56.58;97092.58;106463;1273;22524;-68
2023/02/06 10:01:05;;;;;;;13.80;6.90;;;;;;;-1.69;56.33;97098.77;106470;1268;22784;-65
2023/02/06 10:03:33;;;;;;;12.70;7.20;;;;;;;-1.63;56.91;97092.19;106484;1269;22879;-66
2023/02/06 10:06:18;;;;;;;12.90;7.30;;;;;;;-1.64;56.06;97090.23;106562;1275;22532;-66
2023/02/06 10:09:02;;;;;;;29.10;13.10;;;;;;;-1.64;56.43;97090.11;106474;1270;22523;-65
2023/02/06 10:11:47;;;;;;;17.60;9.10;;;;;;;-1.54;56.88;97085.45;106520;1272;25329;-66
2023/02/06 10:14:34;;;;;;;15.00;9.00;;;;;;;-1.40;56.60;97087.88;106596;1265;22533;-65
2023/02/06 10:17:11;;;;;;;12.00;7.40;;;;;;;-1.34;55.99;97088.02;106559;1275;23665;-65
2023/02/06 10:20:28;;;;;;;12.00;8.10;;;;;;;-1.22;56.01;97084.63;106475;1275;25478;-65
2023/02/06 10:23:23;;;;;;;19.00;12.30;;;;;;;-0.97;56.60;97075.34;106569;1275;26621;-65
2023/02/06 10:26:07;;;;;;;14.60;8.30;;;;;;;-0.65;55.52;97070.70;106703;1275;22513;-64
2023/02/06 10:28:35;;;;;;;18.80;10.70;;;;;;;-0.35;54.25;97070.42;106865;1275;24254;-65
2023/02/06 10:31:09;;;;;;;12.30;7.00;;;;;;;0.04;53.42;97067.34;106729;1275;24385;-65
2023/02/06 10:33:43;;;;;;;14.20;7.60;;;;;;;0.34;51.86;97066.64;106660;1275;24213;-65
2023/02/06 10:36:33;;;;;;;12.00;6.60;;;;;;;0.54;50.54;97062.84;106630;1275;25370;-65
2023/02/06 10:39:19;;;;;;;11.60;7.00;;;;;;;0.84;50.46;97057.17;106596;1275;24234;-65
2023/02/06 10:42:03;;;;;;;12.70;8.80;;;;;;;1.39;50.17;97049.40;106948;1275;22523;-65
2023/02/06 10:44:40;;;;;;;;;;;;;;;1.76;48.57;97046.02;106654;1275;25208;-66
2023/02/06 10:47:45;;;;;;;10.70;6.50;;;;;;;2.02;47.41;97048.56;106600;1275;23887;-66
2023/02/06 10:50:19;;;;;;;12.70;7.20;;;;;;;2.29;46.01;97042.81;106566;1275;25318;-67
2023/02/06 10:52:47;;;;;;;;;;;;;;;2.45;45.57;97044.05;106596;1275;22508;-67
2023/02/06 10:55:25;;;;;;;11.10;7.60;;;;;;;2.61;45.61;97038.73;106603;1275;22608;-66
2023/02/06 10:58:04;;;;;;;10.50;7.30;;;;;;;2.86;44.23;97039.94;106625;1275;25274;-67
2023/02/06 11:00:33;;;;;;;12.20;8.00;;;;;;;3.03;44.08;97036.53;106637;1275;22521;-67
2023/02/06 11:03:09;;;;;;;11.00;8.00;;;;;;;3.28;44.06;97033.17;106630;1275;25337;-67
2023/02/06 11:05:37;;;;;;;8.50;5.80;;;;;;;3.47;42.64;97033.46;106869;1275;24228;-67
2023/02/06 11:08:26;;;;;;;10.00;6.00;;;;;;;3.48;42.19;97032.98;106948;1275;22579;-67
2023/02/06 11:10:55;;;;;;;9.40;6.60;;;;;;;3.31;41.68;97030.16;106929;1275;22553;-67
2023/02/06 11:13:36;;;;;;;11.80;6.80;;;;;;;3.27;42.40;97028.46;106966;1275;22527;-67
2023/02/06 11:16:15;;;;;;;9.20;6.30;;;;;;;3.67;42.46;97029.56;106630;1275;22532;-68
2023/02/06 11:18:45;;;;;;;8.50;5.70;;;;;;;3.83;41.15;97030.59;106541;1275;24427;-67
2023/02/06 11:21:34;;;;;;;8.00;5.60;;;;;;;3.81;40.80;97030.85;106641;1275;22538;-68
2023/02/06 11:24:11;;;;;;;8.50;6.60;;;;;;;4.04;41.01;97026.86;106557;1275;25447;-68
2023/02/06 11:26:49;;;;;;;14.90;9.50;;;;;;;4.52;40.17;97023.69;106635;1275;22529;-68
2023/02/06 11:29:24;;;;;;;7.60;5.40;;;;;;;4.89;39.73;97015.63;106627;1275;22535;-68
2023/02/06 11:31:57;;;;;;;7.60;5.80;;;;;;;5.11;38.95;97015.50;106591;1275;22568;-68